sensor_id;sensor_type;location;lat;lon;timestamp;P1;durP1;ratioP1;P2;durP2;ratioP2
23390;SDS011;11868;45.606;5.302;2023-02-10T00:01:34;27.75;;;14.85;;
23390;SDS011;11868;45.606;5.302;2023-02-10T00:04:00;25.90;;;15.23;;
23390;SDS011;11868;45.606;5.302;2023-02-10T00:06:26;23.30;;;14.63;;
23390;SDS011;11868;45.606;5.302;2023-02-10T00:08:56;24.35;;;14.52;;
23390;SDS011;11868;45.606;5.302;2023-02-10T00:11:22;31.88;;;15.63;;
23390;SDS011;11868;45.606;5.302;2023-02-10T00:14:08;33.28;;;15.30;;
23390;SDS011;11868;45.606;5.302;2023-02-10T00:16:34;27.60;;;15.80;;
23390;SDS011;11868;45.606;5.302;2023-02-10T00:18:59;29.65;;;14.98;;
23390;SDS011;11868;45.606;5.302;2023-02-10T00:21:25;24.52;;;15.13;;
23390;SDS011;11868;45.606;5.302;2023-02-10T00:23:50;24.85;;;14.98;;
23390;SDS011;11868;45.606;5.302;2023-02-10T00:26:15;29.70;;;14.98;;
23390;SDS011;11868;45.606;5.302;2023-02-10T00:28:41;25.77;;;15.88;;
23390;SDS011;11868;45.606;5.302;2023-02-10T00:31:10;26.25;;;14.57;;
23390;SDS011;11868;45.606;5.302;2023-02-10T00:33:37;23.80;;;13.90;;
23390;SDS011;11868;45.606;5.302;2023-02-10T00:36:06;27.40;;;15.20;;
23390;SDS011;11868;45.606;5.302;2023-02-10T00:38:33;28.00;;;16.17;;
23390;SDS011;11868;45.606;5.302;2023-02-10T00:41:05;26.92;;;15.60;;
23390;SDS011;11868;45.606;5.302;2023-02-10T00:43:31;33.15;;;17.10;;
23390;SDS011;11868;45.606;5.302;2023-02-10T00:45:57;31.10;;;16.25;;
23390;SDS011;11868;45.606;5.302;2023-02-10T00:48:22;29.80;;;17.35;;
23390;SDS011;11868;45.606;5.302;2023-02-10T00:50:48;31.60;;;18.25;;
23390;SDS011;11868;45.606;5.302;2023-02-10T00:53:13;31.92;;;18.30;;
23390;SDS011;11868;45.606;5.302;2023-02-10T00:55:38;31.70;;;18.88;;
23390;SDS011;11868;45.606;5.302;2023-02-10T00:58:04;31.73;;;17.92;;
23390;SDS011;11868;45.606;5.302;2023-02-10T01:00:29;31.25;;;18.48;;
23390;SDS011;11868;45.606;5.302;2023-02-10T01:02:54;38.40;;;18.77;;
23390;SDS011;11868;45.606;5.302;2023-02-10T01:05:20;33.35;;;18.60;;
23390;SDS011;11868;45.606;5.302;2023-02-10T01:07:45;35.30;;;18.52;;
23390;SDS011;11868;45.606;5.302;2023-02-10T01:10:10;32.75;;;17.67;;
23390;SDS011;11868;45.606;5.302;2023-02-10T01:12:36;40.38;;;18.50;;
23390;SDS011;11868;45.606;5.302;2023-02-10T01:15:01;30.05;;;17.60;;
23390;SDS011;11868;45.606;5.302;2023-02-10T01:17:27;31.20;;;18.13;;
23390;SDS011;11868;45.606;5.302;2023-02-10T01:19:52;35.03;;;17.95;;
23390;SDS011;11868;45.606;5.302;2023-02-10T01:22:17;33.70;;;18.30;;
23390;SDS011;11868;45.606;5.302;2023-02-10T01:24:43;32.03;;;17.02;;
23390;SDS011;11868;45.606;5.302;2023-02-10T01:27:08;30.58;;;17.75;;
23390;SDS011;11868;45.606;5.302;2023-02-10T01:29:33;30.42;;;17.60;;
23390;SDS011;11868;45.606;5.302;2023-02-10T01:31:59;28.15;;;16.90;;
23390;SDS011;11868;45.606;5.302;2023-02-10T01:34:24;28.15;;;17.25;;
23390;SDS011;11868;45.606;5.302;2023-02-10T01:36:51;30.90;;;17.55;;
23390;SDS011;11868;45.606;5.302;2023-02-10T01:39:16;34.40;;;17.73;;
23390;SDS011;11868;45.606;5.302;2023-02-10T01:41:42;36.50;;;18.67;;
23390;SDS011;11868;45.606;5.302;2023-02-10T01:47:02;34.42;;;18.75;;
23390;SDS011;11868;45.606;5.302;2023-02-10T01:49:28;32.33;;;19.42;;
23390;SDS011;11868;45.606;5.302;2023-02-10T01:52:00;34.92;;;19.40;;
23390;SDS011;11868;45.606;5.302;2023-02-10T01:54:31;36.70;;;19.65;;
23390;SDS011;11868;45.606;5.302;2023-02-10T01:56:58;31.50;;;19.08;;
23390;SDS011;11868;45.606;5.302;2023-02-10T01:59:25;32.42;;;20.33;;
23390;SDS011;11868;45.606;5.302;2023-02-10T02:01:51;36.65;;;19.88;;
23390;SDS011;11868;45.606;5.302;2023-02-10T02:04:17;32.30;;;19.98;;
23390;SDS011;11868;45.606;5.302;2023-02-10T02:06:42;31.92;;;20.13;;
23390;SDS011;11868;45.606;5.302;2023-02-10T02:09:08;33.55;;;18.48;;
23390;SDS011;11868;45.606;5.302;2023-02-10T02:11:38;35.00;;;19.70;;
23390;SDS011;11868;45.606;5.302;2023-02-10T02:19:42;32.33;;;18.83;;
23390;SDS011;11868;45.606;5.302;2023-02-10T02:27:51;28.52;;;17.60;;
23390;SDS011;11868;45.606;5.302;2023-02-10T02:33:17;31.73;;;18.20;;
23390;SDS011;11868;45.606;5.302;2023-02-10T02:35:44;30.95;;;17.67;;
23390;SDS011;11868;45.606;5.302;2023-02-10T02:38:14;33.13;;;17.92;;
23390;SDS011;11868;45.606;5.302;2023-02-10T02:40:40;36.63;;;19.38;;
23390;SDS011;11868;45.606;5.302;2023-02-10T02:43:05;33.35;;;19.33;;
23390;SDS011;11868;45.606;5.302;2023-02-10T02:53:58;38.65;;;20.70;;
23390;SDS011;11868;45.606;5.302;2023-02-10T02:59:20;39.00;;;20.23;;
23390;SDS011;11868;45.606;5.302;2023-02-10T03:02:02;36.17;;;21.33;;
23390;SDS011;11868;45.606;5.302;2023-02-10T03:04:33;33.45;;;19.88;;
23390;SDS011;11868;45.606;5.302;2023-02-10T03:06:59;35.05;;;19.88;;
23390;SDS011;11868;45.606;5.302;2023-02-10T03:09:26;39.08;;;20.88;;
23390;SDS011;11868;45.606;5.302;2023-02-10T03:11:52;33.00;;;19.77;;
23390;SDS011;11868;45.606;5.302;2023-02-10T03:14:17;38.13;;;21.50;;
23390;SDS011;11868;45.606;5.302;2023-02-10T03:16:43;37.13;;;20.88;;
23390;SDS011;11868;45.606;5.302;2023-02-10T03:19:08;39.58;;;21.58;;
23390;SDS011;11868;45.606;5.302;2023-02-10T03:21:34;44.30;;;21.73;;
23390;SDS011;11868;45.606;5.302;2023-02-10T03:23:59;41.08;;;21.98;;
23390;SDS011;11868;45.606;5.302;2023-02-10T03:26:26;43.50;;;22.48;;
23390;SDS011;11868;45.606;5.302;2023-02-10T03:28:54;37.90;;;21.40;;
23390;SDS011;11868;45.606;5.302;2023-02-10T03:31:20;43.08;;;22.02;;
23390;SDS011;11868;45.606;5.302;2023-02-10T03:33:46;38.17;;;22.15;;
23390;SDS011;11868;45.606;5.302;2023-02-10T03:36:11;43.08;;;22.23;;
23390;SDS011;11868;45.606;5.302;2023-02-10T03:38:36;39.17;;;23.05;;
23390;SDS011;11868;45.606;5.302;2023-02-10T03:41:02;39.10;;;22.67;;
23390;SDS011;11868;45.606;5.302;2023-02-10T03:43:28;43.97;;;25.05;;
23390;SDS011;11868;45.606;5.302;2023-02-10T03:45:53;42.25;;;23.85;;
23390;SDS011;11868;45.606;5.302;2023-02-10T03:48:18;43.13;;;24.27;;
23390;SDS011;11868;45.606;5.302;2023-02-10T03:50:44;40.88;;;23.17;;
23390;SDS011;11868;45.606;5.302;2023-02-10T03:53:09;43.10;;;22.45;;
23390;SDS011;11868;45.606;5.302;2023-02-10T03:55:35;41.97;;;23.70;;
23390;SDS011;11868;45.606;5.302;2023-02-10T03:58:01;45.00;;;25.00;;
23390;SDS011;11868;45.606;5.302;2023-02-10T04:00:27;43.67;;;22.95;;
23390;SDS011;11868;45.606;5.302;2023-02-10T04:02:53;46.60;;;24.15;;
23390;SDS011;11868;45.606;5.302;2023-02-10T04:05:18;41.85;;;23.52;;
23390;SDS011;11868;45.606;5.302;2023-02-10T04:07:44;40.15;;;23.27;;
23390;SDS011;11868;45.606;5.302;2023-02-10T04:10:09;44.28;;;23.48;;
23390;SDS011;11868;45.606;5.302;2023-02-10T04:12:35;40.17;;;22.65;;
23390;SDS011;11868;45.606;5.302;2023-02-10T04:15:00;46.63;;;24.55;;
23390;SDS011;11868;45.606;5.302;2023-02-10T04:17:25;46.38;;;25.55;;
23390;SDS011;11868;45.606;5.302;2023-02-10T04:19:51;43.10;;;23.48;;
23390;SDS011;11868;45.606;5.302;2023-02-10T04:22:16;40.30;;;24.00;;
23390;SDS011;11868;45.606;5.302;2023-02-10T04:24:42;44.40;;;25.00;;
23390;SDS011;11868;45.606;5.302;2023-02-10T04:27:07;47.75;;;25.67;;
23390;SDS011;11868;45.606;5.302;2023-02-10T04:29:32;50.10;;;25.85;;
23390;SDS011;11868;45.606;5.302;2023-02-10T04:31:59;50.80;;;24.38;;
23390;SDS011;11868;45.606;5.302;2023-02-10T04:34:24;41.28;;;23.65;;
23390;SDS011;11868;45.606;5.302;2023-02-10T04:36:50;44.00;;;24.80;;
23390;SDS011;11868;45.606;5.302;2023-02-10T04:39:15;42.85;;;24.38;;
23390;SDS011;11868;45.606;5.302;2023-02-10T04:41:40;41.95;;;24.00;;
23390;SDS011;11868;45.606;5.302;2023-02-10T04:44:06;39.85;;;23.73;;
23390;SDS011;11868;45.606;5.302;2023-02-10T04:46:31;46.45;;;23.42;;
23390;SDS011;11868;45.606;5.302;2023-02-10T04:48:57;46.15;;;23.75;;
23390;SDS011;11868;45.606;5.302;2023-02-10T04:51:22;44.90;;;24.30;;
23390;SDS011;11868;45.606;5.302;2023-02-10T04:53:47;44.72;;;23.73;;
23390;SDS011;11868;45.606;5.302;2023-02-10T04:56:13;47.53;;;25.35;;
23390;SDS011;11868;45.606;5.302;2023-02-10T04:58:39;43.92;;;25.00;;
23390;SDS011;11868;45.606;5.302;2023-02-10T05:01:05;41.70;;;24.75;;
23390;SDS011;11868;45.606;5.302;2023-02-10T05:03:31;40.40;;;24.08;;
23390;SDS011;11868;45.606;5.302;2023-02-10T05:05:56;46.10;;;24.58;;
23390;SDS011;11868;45.606;5.302;2023-02-10T05:08:21;39.38;;;24.23;;
23390;SDS011;11868;45.606;5.302;2023-02-10T05:10:47;41.33;;;24.02;;
23390;SDS011;11868;45.606;5.302;2023-02-10T05:13:13;44.95;;;24.73;;
23390;SDS011;11868;45.606;5.302;2023-02-10T05:15:39;48.75;;;24.08;;
23390;SDS011;11868;45.606;5.302;2023-02-10T05:18:04;39.97;;;23.95;;
23390;SDS011;11868;45.606;5.302;2023-02-10T05:20:30;47.97;;;23.92;;
23390;SDS011;11868;45.606;5.302;2023-02-10T05:22:55;40.90;;;23.42;;
23390;SDS011;11868;45.606;5.302;2023-02-10T05:25:20;37.90;;;22.90;;
23390;SDS011;11868;45.606;5.302;2023-02-10T05:27:46;45.08;;;23.90;;
23390;SDS011;11868;45.606;5.302;2023-02-10T05:30:11;45.70;;;23.30;;
23390;SDS011;11868;45.606;5.302;2023-02-10T05:32:38;41.17;;;23.45;;
23390;SDS011;11868;45.606;5.302;2023-02-10T05:35:07;44.83;;;23.58;;
23390;SDS011;11868;45.606;5.302;2023-02-10T05:37:32;45.95;;;25.15;;
23390;SDS011;11868;45.606;5.302;2023-02-10T05:39:58;45.72;;;24.75;;
23390;SDS011;11868;45.606;5.302;2023-02-10T05:42:23;42.95;;;25.80;;
23390;SDS011;11868;45.606;5.302;2023-02-10T05:44:49;46.70;;;25.55;;
23390;SDS011;11868;45.606;5.302;2023-02-10T05:47:14;42.10;;;24.15;;
23390;SDS011;11868;45.606;5.302;2023-02-10T05:49:39;43.03;;;24.70;;
23390;SDS011;11868;45.606;5.302;2023-02-10T05:52:05;44.53;;;24.48;;
23390;SDS011;11868;45.606;5.302;2023-02-10T05:54:30;41.80;;;24.52;;
23390;SDS011;11868;45.606;5.302;2023-02-10T05:56:56;41.95;;;24.40;;
23390;SDS011;11868;45.606;5.302;2023-02-10T05:59:22;49.13;;;24.23;;
23390;SDS011;11868;45.606;5.302;2023-02-10T06:01:47;48.20;;;26.20;;
23390;SDS011;11868;45.606;5.302;2023-02-10T06:04:13;46.85;;;26.45;;
23390;SDS011;11868;45.606;5.302;2023-02-10T06:06:38;51.97;;;27.60;;
23390;SDS011;11868;45.606;5.302;2023-02-10T06:09:04;47.42;;;27.67;;
23390;SDS011;11868;45.606;5.302;2023-02-10T06:11:29;45.80;;;26.00;;
23390;SDS011;11868;45.606;5.302;2023-02-10T06:13:55;53.10;;;28.52;;
23390;SDS011;11868;45.606;5.302;2023-02-10T06:16:20;54.58;;;28.85;;
23390;SDS011;11868;45.606;5.302;2023-02-10T06:18:46;94.88;;;45.25;;
23390;SDS011;11868;45.606;5.302;2023-02-10T06:21:13;88.28;;;41.50;;
23390;SDS011;11868;45.606;5.302;2023-02-10T06:23:39;85.10;;;42.97;;
23390;SDS011;11868;45.606;5.302;2023-02-10T06:26:05;73.20;;;37.10;;
23390;SDS011;11868;45.606;5.302;2023-02-10T06:28:30;59.55;;;32.05;;
23390;SDS011;11868;45.606;5.302;2023-02-10T06:30:55;68.13;;;33.63;;
23390;SDS011;11868;45.606;5.302;2023-02-10T06:33:21;64.82;;;32.50;;
23390;SDS011;11868;45.606;5.302;2023-02-10T06:35:46;53.58;;;30.17;;
23390;SDS011;11868;45.606;5.302;2023-02-10T06:38:12;49.83;;;28.45;;
23390;SDS011;11868;45.606;5.302;2023-02-10T06:40:38;56.58;;;29.38;;
23390;SDS011;11868;45.606;5.302;2023-02-10T06:43:03;48.95;;;27.63;;
23390;SDS011;11868;45.606;5.302;2023-02-10T06:45:29;49.58;;;28.30;;
23390;SDS011;11868;45.606;5.302;2023-02-10T06:47:54;46.58;;;27.33;;
23390;SDS011;11868;45.606;5.302;2023-02-10T06:50:20;48.88;;;27.75;;
23390;SDS011;11868;45.606;5.302;2023-02-10T06:52:46;46.00;;;27.58;;
23390;SDS011;11868;45.606;5.302;2023-02-10T06:55:12;52.13;;;27.77;;
23390;SDS011;11868;45.606;5.302;2023-02-10T06:57:37;49.67;;;28.00;;
23390;SDS011;11868;45.606;5.302;2023-02-10T07:00:03;50.38;;;28.40;;
23390;SDS011;11868;45.606;5.302;2023-02-10T07:02:33;50.20;;;30.60;;
23390;SDS011;11868;45.606;5.302;2023-02-10T07:04:58;55.95;;;29.10;;
23390;SDS011;11868;45.606;5.302;2023-02-10T07:07:24;53.28;;;30.02;;
23390;SDS011;11868;45.606;5.302;2023-02-10T07:09:49;49.88;;;27.63;;
23390;SDS011;11868;45.606;5.302;2023-02-10T07:12:18;51.37;;;27.87;;
23390;SDS011;11868;45.606;5.302;2023-02-10T07:14:44;50.05;;;27.77;;
23390;SDS011;11868;45.606;5.302;2023-02-10T07:17:09;48.58;;;28.23;;
23390;SDS011;11868;45.606;5.302;2023-02-10T07:19:38;48.45;;;29.13;;
23390;SDS011;11868;45.606;5.302;2023-02-10T07:22:08;53.00;;;30.00;;
23390;SDS011;11868;45.606;5.302;2023-02-10T07:24:34;54.78;;;31.40;;
23390;SDS011;11868;45.606;5.302;2023-02-10T07:26:59;53.75;;;33.10;;
23390;SDS011;11868;45.606;5.302;2023-02-10T07:29:25;61.03;;;35.42;;
23390;SDS011;11868;45.606;5.302;2023-02-10T07:31:50;70.68;;;41.13;;
23390;SDS011;11868;45.606;5.302;2023-02-10T07:34:16;73.97;;;40.85;;
23390;SDS011;11868;45.606;5.302;2023-02-10T07:36:44;66.65;;;39.83;;
23390;SDS011;11868;45.606;5.302;2023-02-10T07:39:10;66.70;;;38.47;;
23390;SDS011;11868;45.606;5.302;2023-02-10T07:41:36;59.50;;;33.72;;
23390;SDS011;11868;45.606;5.302;2023-02-10T07:44:01;57.47;;;33.50;;
23390;SDS011;11868;45.606;5.302;2023-02-10T07:46:27;57.83;;;33.30;;
23390;SDS011;11868;45.606;5.302;2023-02-10T07:48:52;58.65;;;33.75;;
23390;SDS011;11868;45.606;5.302;2023-02-10T07:51:18;56.17;;;31.70;;
23390;SDS011;11868;45.606;5.302;2023-02-10T07:53:43;59.78;;;31.40;;
23390;SDS011;11868;45.606;5.302;2023-02-10T07:56:08;65.43;;;36.60;;
23390;SDS011;11868;45.606;5.302;2023-02-10T07:58:35;62.88;;;34.03;;
23390;SDS011;11868;45.606;5.302;2023-02-10T08:01:05;65.70;;;33.88;;
23390;SDS011;11868;45.606;5.302;2023-02-10T08:03:31;62.67;;;33.30;;
23390;SDS011;11868;45.606;5.302;2023-02-10T08:05:56;73.65;;;38.45;;
23390;SDS011;11868;45.606;5.302;2023-02-10T08:08:22;70.53;;;37.50;;
23390;SDS011;11868;45.606;5.302;2023-02-10T08:10:47;59.55;;;31.90;;
23390;SDS011;11868;45.606;5.302;2023-02-10T08:13:12;63.70;;;31.38;;
23390;SDS011;11868;45.606;5.302;2023-02-10T08:15:38;55.40;;;30.80;;
23390;SDS011;11868;45.606;5.302;2023-02-10T08:18:03;58.25;;;31.08;;
23390;SDS011;11868;45.606;5.302;2023-02-10T08:20:29;60.78;;;32.78;;
23390;SDS011;11868;45.606;5.302;2023-02-10T08:22:54;62.85;;;33.90;;
23390;SDS011;11868;45.606;5.302;2023-02-10T08:25:21;55.72;;;32.30;;
23390;SDS011;11868;45.606;5.302;2023-02-10T08:27:46;61.90;;;34.78;;
23390;SDS011;11868;45.606;5.302;2023-02-10T08:30:12;58.83;;;33.08;;
23390;SDS011;11868;45.606;5.302;2023-02-10T08:32:37;56.45;;;32.40;;
23390;SDS011;11868;45.606;5.302;2023-02-10T08:35:03;58.22;;;33.50;;
23390;SDS011;11868;45.606;5.302;2023-02-10T08:37:28;63.47;;;32.72;;
23390;SDS011;11868;45.606;5.302;2023-02-10T08:39:54;57.72;;;33.80;;
23390;SDS011;11868;45.606;5.302;2023-02-10T08:42:19;54.88;;;34.03;;
23390;SDS011;11868;45.606;5.302;2023-02-10T08:44:45;61.20;;;34.03;;
23390;SDS011;11868;45.606;5.302;2023-02-10T08:47:10;62.95;;;35.10;;
23390;SDS011;11868;45.606;5.302;2023-02-10T08:49:38;66.90;;;36.80;;
23390;SDS011;11868;45.606;5.302;2023-02-10T08:52:04;62.75;;;36.15;;
23390;SDS011;11868;45.606;5.302;2023-02-10T08:54:29;63.35;;;35.30;;
23390;SDS011;11868;45.606;5.302;2023-02-10T08:56:55;63.53;;;34.42;;
23390;SDS011;11868;45.606;5.302;2023-02-10T08:59:20;64.03;;;36.10;;
23390;SDS011;11868;45.606;5.302;2023-02-10T09:01:46;67.35;;;35.80;;
23390;SDS011;11868;45.606;5.302;2023-02-10T09:04:12;66.07;;;36.10;;
23390;SDS011;11868;45.606;5.302;2023-02-10T09:06:38;63.58;;;35.70;;
23390;SDS011;11868;45.606;5.302;2023-02-10T09:09:06;71.43;;;37.65;;
23390;SDS011;11868;45.606;5.302;2023-02-10T09:11:32;67.13;;;37.45;;
23390;SDS011;11868;45.606;5.302;2023-02-10T09:13:57;71.05;;;37.67;;
23390;SDS011;11868;45.606;5.302;2023-02-10T09:16:23;62.40;;;36.15;;
23390;SDS011;11868;45.606;5.302;2023-02-10T09:18:49;67.55;;;37.22;;
23390;SDS011;11868;45.606;5.302;2023-02-10T09:21:14;65.00;;;37.30;;
23390;SDS011;11868;45.606;5.302;2023-02-10T09:23:41;66.70;;;36.80;;
23390;SDS011;11868;45.606;5.302;2023-02-10T09:26:06;62.95;;;34.97;;
23390;SDS011;11868;45.606;5.302;2023-02-10T09:28:31;64.85;;;36.10;;
23390;SDS011;11868;45.606;5.302;2023-02-10T09:30:57;62.63;;;35.80;;
23390;SDS011;11868;45.606;5.302;2023-02-10T09:33:22;60.55;;;35.28;;
23390;SDS011;11868;45.606;5.302;2023-02-10T09:35:48;63.63;;;36.72;;
23390;SDS011;11868;45.606;5.302;2023-02-10T09:38:13;63.83;;;36.67;;
23390;SDS011;11868;45.606;5.302;2023-02-10T09:41:03;67.05;;;36.60;;
23390;SDS011;11868;45.606;5.302;2023-02-10T09:46:27;59.00;;;33.63;;
23390;SDS011;11868;45.606;5.302;2023-02-10T09:54:09;61.05;;;34.30;;
23390;SDS011;11868;45.606;5.302;2023-02-10T09:56:36;56.58;;;33.05;;
23390;SDS011;11868;45.606;5.302;2023-02-10T09:59:02;53.13;;;31.40;;
23390;SDS011;11868;45.606;5.302;2023-02-10T10:04:10;54.58;;;31.45;;
23390;SDS011;11868;45.606;5.302;2023-02-10T10:06:40;49.33;;;30.27;;
23390;SDS011;11868;45.606;5.302;2023-02-10T10:11:41;53.22;;;29.63;;
23390;SDS011;11868;45.606;5.302;2023-02-10T10:14:14;54.38;;;31.58;;
23390;SDS011;11868;45.606;5.302;2023-02-10T10:35:46;49.75;;;30.88;;
23390;SDS011;11868;45.606;5.302;2023-02-10T10:38:15;61.00;;;33.15;;
23390;SDS011;11868;45.606;5.302;2023-02-10T10:40:48;56.30;;;31.15;;
23390;SDS011;11868;45.606;5.302;2023-02-10T10:43:17;45.63;;;28.38;;
23390;SDS011;11868;45.606;5.302;2023-02-10T10:45:48;48.22;;;28.30;;
23390;SDS011;11868;45.606;5.302;2023-02-10T10:48:21;48.85;;;29.15;;
23390;SDS011;11868;45.606;5.302;2023-02-10T10:50:51;48.97;;;27.52;;
23390;SDS011;11868;45.606;5.302;2023-02-10T10:53:52;47.25;;;28.27;;
23390;SDS011;11868;45.606;5.302;2023-02-10T10:58:54;48.42;;;28.90;;
23390;SDS011;11868;45.606;5.302;2023-02-10T11:01:30;45.05;;;27.90;;
23390;SDS011;11868;45.606;5.302;2023-02-10T11:04:04;46.83;;;27.38;;
23390;SDS011;11868;45.606;5.302;2023-02-10T11:06:38;52.70;;;28.23;;
23390;SDS011;11868;45.606;5.302;2023-02-10T11:09:05;44.10;;;26.90;;
23390;SDS011;11868;45.606;5.302;2023-02-10T11:11:40;48.05;;;27.77;;
23390;SDS011;11868;45.606;5.302;2023-02-10T11:14:16;47.50;;;27.10;;
23390;SDS011;11868;45.606;5.302;2023-02-10T11:16:53;45.63;;;26.80;;
23390;SDS011;11868;45.606;5.302;2023-02-10T11:19:26;45.80;;;24.85;;
23390;SDS011;11868;45.606;5.302;2023-02-10T11:21:54;46.47;;;25.02;;
23390;SDS011;11868;45.606;5.302;2023-02-10T11:24:23;48.63;;;25.83;;
23390;SDS011;11868;45.606;5.302;2023-02-10T11:26:54;41.78;;;25.55;;
23390;SDS011;11868;45.606;5.302;2023-02-10T11:29:21;45.38;;;26.92;;
23390;SDS011;11868;45.606;5.302;2023-02-10T11:31:46;45.13;;;27.30;;
23390;SDS011;11868;45.606;5.302;2023-02-10T11:36:50;49.53;;;29.55;;
23390;SDS011;11868;45.606;5.302;2023-02-10T11:41:50;53.20;;;30.73;;
23390;SDS011;11868;45.606;5.302;2023-02-10T11:46:58;51.28;;;32.03;;
23390;SDS011;11868;45.606;5.302;2023-02-10T11:49:25;48.97;;;30.55;;
23390;SDS011;11868;45.606;5.302;2023-02-10T11:51:55;49.72;;;30.40;;
23390;SDS011;11868;45.606;5.302;2023-02-10T11:54:22;53.35;;;32.13;;
23390;SDS011;11868;45.606;5.302;2023-02-10T11:56:55;51.30;;;31.98;;
23390;SDS011;11868;45.606;5.302;2023-02-10T12:03:09;50.78;;;32.97;;
23390;SDS011;11868;45.606;5.302;2023-02-10T12:11:23;56.40;;;35.90;;
23390;SDS011;11868;45.606;5.302;2023-02-10T12:14:00;54.33;;;34.20;;
23390;SDS011;11868;45.606;5.302;2023-02-10T12:19:24;60.35;;;35.58;;
23390;SDS011;11868;45.606;5.302;2023-02-10T12:24:50;55.85;;;34.55;;
23390;SDS011;11868;45.606;5.302;2023-02-10T12:27:27;56.70;;;32.00;;
23390;SDS011;11868;45.606;5.302;2023-02-10T12:40:41;48.33;;;31.05;;
23390;SDS011;11868;45.606;5.302;2023-02-10T12:43:23;50.67;;;30.08;;
23390;SDS011;11868;45.606;5.302;2023-02-10T12:46:22;49.03;;;30.70;;
23390;SDS011;11868;45.606;5.302;2023-02-10T12:51:56;52.67;;;31.20;;
23390;SDS011;11868;45.606;5.302;2023-02-10T12:57:26;49.25;;;30.45;;
23390;SDS011;11868;45.606;5.302;2023-02-10T13:02:39;46.00;;;28.75;;
23390;SDS011;11868;45.606;5.302;2023-02-10T13:05:08;45.60;;;27.90;;
23390;SDS011;11868;45.606;5.302;2023-02-10T13:07:40;43.42;;;28.23;;
23390;SDS011;11868;45.606;5.302;2023-02-10T13:10:20;45.38;;;28.88;;
23390;SDS011;11868;45.606;5.302;2023-02-10T13:13:40;41.45;;;27.48;;
23390;SDS011;11868;45.606;5.302;2023-02-10T13:16:00;45.08;;;28.63;;
23390;SDS011;11868;45.606;5.302;2023-02-10T13:18:31;40.08;;;26.33;;
23390;SDS011;11868;45.606;5.302;2023-02-10T13:21:00;43.80;;;26.58;;
23390;SDS011;11868;45.606;5.302;2023-02-10T13:35:04;45.78;;;27.05;;
23390;SDS011;11868;45.606;5.302;2023-02-10T13:37:35;44.92;;;28.17;;
23390;SDS011;11868;45.606;5.302;2023-02-10T13:40:04;45.38;;;27.33;;
23390;SDS011;11868;45.606;5.302;2023-02-10T13:42:52;43.08;;;26.60;;
23390;SDS011;11868;45.606;5.302;2023-02-10T13:45:31;41.70;;;25.75;;
23390;SDS011;11868;45.606;5.302;2023-02-10T13:47:58;42.80;;;24.77;;
23390;SDS011;11868;45.606;5.302;2023-02-10T13:50:30;39.63;;;26.10;;
23390;SDS011;11868;45.606;5.302;2023-02-10T13:53:04;39.08;;;25.45;;
23390;SDS011;11868;45.606;5.302;2023-02-10T13:58:47;41.27;;;25.43;;
23390;SDS011;11868;45.606;5.302;2023-02-10T14:00:52;42.28;;;27.80;;
23390;SDS011;11868;45.606;5.302;2023-02-10T14:03:23;41.40;;;26.83;;
23390;SDS011;11868;45.606;5.302;2023-02-10T14:08:27;42.55;;;28.33;;
23390;SDS011;11868;45.606;5.302;2023-02-10T14:11:04;40.78;;;26.70;;
23390;SDS011;11868;45.606;5.302;2023-02-10T14:13:42;46.85;;;29.42;;
23390;SDS011;11868;45.606;5.302;2023-02-10T14:18:42;41.83;;;27.00;;
23390;SDS011;11868;45.606;5.302;2023-02-10T14:21:13;44.50;;;26.48;;
23390;SDS011;11868;45.606;5.302;2023-02-10T14:23:51;41.42;;;26.10;;
23390;SDS011;11868;45.606;5.302;2023-02-10T14:26:19;44.70;;;27.67;;
23390;SDS011;11868;45.606;5.302;2023-02-10T14:28:54;46.05;;;27.27;;
23390;SDS011;11868;45.606;5.302;2023-02-10T14:31:28;41.92;;;26.60;;
23390;SDS011;11868;45.606;5.302;2023-02-10T14:33:57;40.63;;;26.83;;
23390;SDS011;11868;45.606;5.302;2023-02-10T14:36:24;38.47;;;25.10;;
23390;SDS011;11868;45.606;5.302;2023-02-10T14:38:51;43.00;;;28.70;;
23390;SDS011;11868;45.606;5.302;2023-02-10T14:41:18;42.72;;;27.00;;
23390;SDS011;11868;45.606;5.302;2023-02-10T14:43:44;43.65;;;26.15;;
23390;SDS011;11868;45.606;5.302;2023-02-10T14:46:10;41.17;;;25.70;;
23390;SDS011;11868;45.606;5.302;2023-02-10T14:48:46;43.78;;;26.75;;
23390;SDS011;11868;45.606;5.302;2023-02-10T14:51:18;41.85;;;26.98;;
23390;SDS011;11868;45.606;5.302;2023-02-10T14:53:46;43.50;;;26.38;;
23390;SDS011;11868;45.606;5.302;2023-02-10T14:56:16;42.35;;;24.83;;
23390;SDS011;11868;45.606;5.302;2023-02-10T14:58:45;40.45;;;25.65;;
23390;SDS011;11868;45.606;5.302;2023-02-10T15:01:29;44.88;;;26.60;;
23390;SDS011;11868;45.606;5.302;2023-02-10T15:03:57;41.13;;;26.05;;
23390;SDS011;11868;45.606;5.302;2023-02-10T15:06:24;42.45;;;26.88;;
23390;SDS011;11868;45.606;5.302;2023-02-10T15:11:18;43.42;;;27.67;;
23390;SDS011;11868;45.606;5.302;2023-02-10T15:14:20;45.80;;;29.52;;
23390;SDS011;11868;45.606;5.302;2023-02-10T15:16:47;43.13;;;26.33;;
23390;SDS011;11868;45.606;5.302;2023-02-10T15:19:13;41.10;;;25.23;;
23390;SDS011;11868;45.606;5.302;2023-02-10T15:21:40;41.97;;;26.23;;
23390;SDS011;11868;45.606;5.302;2023-02-10T15:24:16;39.33;;;25.88;;
23390;SDS011;11868;45.606;5.302;2023-02-10T15:26:46;43.15;;;26.48;;
23390;SDS011;11868;45.606;5.302;2023-02-10T15:29:13;48.70;;;28.17;;
23390;SDS011;11868;45.606;5.302;2023-02-10T15:31:40;38.35;;;24.95;;
23390;SDS011;11868;45.606;5.302;2023-02-10T15:34:14;39.60;;;25.23;;
23390;SDS011;11868;45.606;5.302;2023-02-10T15:36:51;43.13;;;26.80;;
23390;SDS011;11868;45.606;5.302;2023-02-10T15:39:22;47.67;;;29.67;;
23390;SDS011;11868;45.606;5.302;2023-02-10T15:46:43;41.75;;;26.60;;
23390;SDS011;11868;45.606;5.302;2023-02-10T15:49:13;44.25;;;27.27;;
23390;SDS011;11868;45.606;5.302;2023-02-10T15:51:58;42.63;;;26.50;;
23390;SDS011;11868;45.606;5.302;2023-02-10T15:54:24;43.58;;;26.02;;
23390;SDS011;11868;45.606;5.302;2023-02-10T15:59:21;46.55;;;27.25;;
23390;SDS011;11868;45.606;5.302;2023-02-10T16:01:52;50.28;;;30.98;;
23390;SDS011;11868;45.606;5.302;2023-02-10T16:04:18;45.78;;;29.25;;
23390;SDS011;11868;45.606;5.302;2023-02-10T16:06:43;48.45;;;28.92;;
23390;SDS011;11868;45.606;5.302;2023-02-10T16:09:09;54.50;;;31.90;;
23390;SDS011;11868;45.606;5.302;2023-02-10T16:11:35;44.88;;;28.80;;
23390;SDS011;11868;45.606;5.302;2023-02-10T16:14:00;50.72;;;30.85;;
23390;SDS011;11868;45.606;5.302;2023-02-10T16:16:26;47.28;;;30.05;;
23390;SDS011;11868;45.606;5.302;2023-02-10T16:18:51;54.22;;;34.75;;
23390;SDS011;11868;45.606;5.302;2023-02-10T16:21:16;60.03;;;36.58;;
23390;SDS011;11868;45.606;5.302;2023-02-10T16:23:42;59.67;;;36.53;;
23390;SDS011;11868;45.606;5.302;2023-02-10T16:26:08;61.40;;;35.35;;
23390;SDS011;11868;45.606;5.302;2023-02-10T16:28:36;56.25;;;34.05;;
23390;SDS011;11868;45.606;5.302;2023-02-10T16:31:01;67.60;;;40.65;;
23390;SDS011;11868;45.606;5.302;2023-02-10T16:33:27;65.00;;;39.35;;
23390;SDS011;11868;45.606;5.302;2023-02-10T16:35:52;58.88;;;33.72;;
23390;SDS011;11868;45.606;5.302;2023-02-10T16:38:17;52.08;;;31.63;;
23390;SDS011;11868;45.606;5.302;2023-02-10T16:40:44;43.03;;;27.85;;